Orel 5 — EMFH — position and weather

sailwx.info

Track history (hours):
 
Tides and Currents Weather Stations Pressure Air Temp Water Temp Dewpoint Dewpoint Depression Visibility Wind Speed Wind Dir Waves Ship Positions

Orel 5

Last reported at 2016-May-06 06:05 UTC. Time now 2016-May-06 22:35 UTC.
Position N 47°38' E 035°06'.

Length 108 m; draft 3.4 m.

Type: Cargo ship. MMSI: 272059000.

Date/timePositionNaut miles runAvg speedWind from/ knotsBaromVisibWave heightAir tempDewpointWater temp
2016-May-06 06:05N 47°38' E 035°06'4 8.0
2016-May-06 05:34N 47°42' E 035°08'7 6.9
2016-May-06 04:34N 47°49' E 035°08'3 3.5
2016-May-06 03:33N 47°52' E 035°06'0 0.3
2016-May-06 02:29N 47°52' E 035°06'0 0.0
2016-May-06 01:29N 47°52' E 035°06'0 0.1
2016-May-06 00:29N 47°52' E 035°06'0 0.1
2016-May-05 23:29N 47°52' E 035°06'0 0.0
2016-May-05 22:30N 47°52' E 035°06'0 0.0
2016-May-05 21:29N 47°52' E 035°06'0 0.0
2016-May-05 20:29N 47°52' E 035°06'0 0.0
2016-May-05 19:29N 47°52' E 035°06'1 0.6
2016-May-05 18:33N 47°53' E 035°06'7 7.4
2016-May-05 17:33N 48°00' E 035°08'  
2016-May-01 15:31N 48°02' E 035°07'8 8.0
2016-May-01 14:34N 47°55' E 035°07'3 3.0
2016-May-01 13:34N 47°52' E 035°05'3 2.9
2016-May-01 12:34N 47°49' E 035°08'5 5.1
2016-May-01 11:33N 47°44' E 035°10'8 8.1
2016-May-01 10:33N 47°37' E 035°04'135 4.8
2016-Apr-30 06:25N 46°32' E 032°11'5 5.6
2016-Apr-30 05:33N 46°32' E 032°04'8 8.4
2016-Apr-30 04:33N 46°35' E 031°52'8 8.1
2016-Apr-30 03:33N 46°36' E 031°40'7 7.3
2016-Apr-30 02:33N 46°36' E 031°30'3 3.1
2016-Apr-30 01:31N 46°34' E 031°26'0 0.0
2016-Apr-29 23:19N 46°33' E 031°26'1 0.9
2016-Apr-29 22:33N 46°34' E 031°27'7 6.6
2016-Apr-29 21:33N 46°29' E 031°22'7 7.2
2016-Apr-29 20:33N 46°23' E 031°15'7 7.2
2016-Apr-29 19:33N 46°17' E 031°10'7 7.1
2016-Apr-29 18:33N 46°11' E 031°04'7 7.3
2016-Apr-29 17:33N 46°05' E 030°58'8 7.7
2016-Apr-29 16:33N 45°59' E 030°52'8 8.0
2016-Apr-29 15:33N 45°52' E 030°45'65 7.7
2016-Apr-29 07:13N 44°59' E 029°52'13 7.7
2016-Apr-29 05:29N 44°47' E 029°44'7 7.0
2016-Apr-29 04:30N 44°43' E 029°36'226 6.5
2016-Apr-27 17:33N 40°59' E 028°60'3 2.5
2016-Apr-27 16:27N 40°57' E 028°58'2 0.1
2016-Apr-27 00:06N 40°57' E 028°55'4 7.3
2016-Apr-26 23:30N 40°54' E 028°59'8 8.3
2016-Apr-26 22:33N 40°49' E 029°07'9 8.6
2016-Apr-26 21:33N 40°46' E 029°17'9 7.9
2016-Apr-26 20:23N 40°45' E 029°29'  
Track history (hours):
 
Tides and Currents Weather Stations Pressure Air Temp Water Temp Dewpoint Dewpoint Depression Visibility Wind Speed Wind Dir Waves Ship Positions

Orel 5

Last reported at 2016-May-06 06:05 UTC. Time now 2016-May-06 22:35 UTC.
Position N 47°38' E 035°06'.

Length 108 m; draft 3.4 m.

Type: Cargo ship. MMSI: 272059000.

Date/timePositionNaut miles runAvg speedWind from/ knotsBaromVisibWave heightAir tempDewpointWater temp
2016-May-06 06:05N 47°38' E 035°06'4 8.0
2016-May-06 05:34N 47°42' E 035°08'7 6.9
2016-May-06 04:34N 47°49' E 035°08'3 3.5
2016-May-06 03:33N 47°52' E 035°06'0 0.3
2016-May-06 02:29N 47°52' E 035°06'0 0.0
2016-May-06 01:29N 47°52' E 035°06'0 0.1
2016-May-06 00:29N 47°52' E 035°06'0 0.1
2016-May-05 23:29N 47°52' E 035°06'0 0.0
2016-May-05 22:30N 47°52' E 035°06'0 0.0
2016-May-05 21:29N 47°52' E 035°06'0 0.0
2016-May-05 20:29N 47°52' E 035°06'0 0.0
2016-May-05 19:29N 47°52' E 035°06'1 0.6
2016-May-05 18:33N 47°53' E 035°06'7 7.4
2016-May-05 17:33N 48°00' E 035°08'  
2016-May-01 15:31N 48°02' E 035°07'8 8.0
2016-May-01 14:34N 47°55' E 035°07'3 3.0
2016-May-01 13:34N 47°52' E 035°05'3 2.9
2016-May-01 12:34N 47°49' E 035°08'5 5.1
2016-May-01 11:33N 47°44' E 035°10'8 8.1
2016-May-01 10:33N 47°37' E 035°04'135 4.8
2016-Apr-30 06:25N 46°32' E 032°11'5 5.6
2016-Apr-30 05:33N 46°32' E 032°04'8 8.4
2016-Apr-30 04:33N 46°35' E 031°52'8 8.1
2016-Apr-30 03:33N 46°36' E 031°40'7 7.3
2016-Apr-30 02:33N 46°36' E 031°30'3 3.1
2016-Apr-30 01:31N 46°34' E 031°26'0 0.0
2016-Apr-29 23:19N 46°33' E 031°26'1 0.9
2016-Apr-29 22:33N 46°34' E 031°27'7 6.6
2016-Apr-29 21:33N 46°29' E 031°22'7 7.2
2016-Apr-29 20:33N 46°23' E 031°15'7 7.2
2016-Apr-29 19:33N 46°17' E 031°10'7 7.1
2016-Apr-29 18:33N 46°11' E 031°04'7 7.3
2016-Apr-29 17:33N 46°05' E 030°58'8 7.7
2016-Apr-29 16:33N 45°59' E 030°52'8 8.0
2016-Apr-29 15:33N 45°52' E 030°45'65 7.7
2016-Apr-29 07:13N 44°59' E 029°52'13 7.7
2016-Apr-29 05:29N 44°47' E 029°44'7 7.0
2016-Apr-29 04:30N 44°43' E 029°36'226 6.5
2016-Apr-27 17:33N 40°59' E 028°60'3 2.5
2016-Apr-27 16:27N 40°57' E 028°58'2 0.1
2016-Apr-27 00:06N 40°57' E 028°55'4 7.3
2016-Apr-26 23:30N 40°54' E 028°59'8 8.3
2016-Apr-26 22:33N 40°49' E 029°07'9 8.6
2016-Apr-26 21:33N 40°46' E 029°17'9 7.9
2016-Apr-26 20:23N 40°45' E 029°29'  

Dump ship's entire track history